South Bend, Texas
Current Conditions -  °F | °C
As of 3:10 PM on Sunday 23 Nov 2014 (Local Time) from KRPH Reporting Station
Clear Clear  
Wind Chill: 68°   Ceiling: Unl
Heat Index: 68°   Visibility: 10mi
Dew Point: 42°   Wind: 26mph
Humidity: 39%   Direction: 290°WNW
Pressure: 29.49"   Gusts: 33mph
Location:  33.01°N, 98.66°W
Report Text: KRPH 232110Z AUTO 29023G29KT 10SM CLR 20/05 A2949 RMK AO2 T01980054
Loading
Personal Weather Stations






























Interactive Weather Map New forecast layout! Learn more

10-Day Weather Forecast

Advertisements
Track Severe Weather on mobile